createdAt,value
2019-03-18T00:00:01.225Z,81.59
2019-03-18T00:03:09.681Z,81.91
2019-03-18T00:06:16.543Z,82.80
2019-03-18T00:09:23.378Z,82.01
2019-03-18T00:12:30.270Z,81.43
2019-03-18T00:15:38.112Z,81.17
2019-03-18T00:18:47.836Z,81.25
2019-03-18T00:21:54.687Z,81.82
2019-03-18T00:25:01.554Z,80.29
2019-03-18T00:28:09.720Z,80.50
2019-03-18T00:31:16.622Z,80.50
2019-03-18T00:34:23.865Z,81.50
2019-03-18T00:37:30.726Z,81.02
2019-03-18T00:40:37.656Z,80.58
2019-03-18T00:43:44.512Z,81.26
2019-03-18T00:46:53.389Z,81.79
2019-03-18T00:50:00.434Z,82.15
2019-03-18T00:53:07.314Z,80.64
2019-03-18T00:56:14.393Z,81.37
2019-03-18T00:59:21.268Z,81.91
2019-03-18T01:02:29.417Z,81.07
2019-03-18T01:05:37.788Z,82.54
2019-03-18T01:08:44.952Z,82.38
2019-03-18T01:11:51.883Z,81.92
2019-03-18T01:14:58.864Z,82.37
2019-03-18T01:18:05.778Z,82.77
2019-03-18T01:21:12.653Z,82.52
2019-03-18T01:24:19.461Z,82.81
2019-03-18T01:27:26.336Z,82.96
2019-03-18T01:30:33.428Z,82.74
2019-03-18T01:33:40.228Z,82.60
2019-03-18T01:36:47.456Z,82.33
2019-03-18T01:39:54.311Z,82.15
2019-03-18T01:43:01.246Z,82.35
2019-03-18T01:46:08.165Z,82.73
2019-03-18T01:49:14.925Z,81.51
2019-03-18T01:52:21.812Z,81.86
2019-03-18T01:55:28.653Z,81.64
2019-03-18T01:58:35.520Z,81.39
2019-03-18T02:01:42.370Z,81.32
2019-03-18T02:04:50.588Z,80.69
2019-03-18T02:07:57.432Z,80.81
2019-03-18T02:11:04.313Z,80.65
2019-03-18T02:14:11.251Z,81.00
2019-03-18T02:17:18.396Z,81.46
2019-03-18T02:20:25.222Z,81.17
2019-03-18T02:23:32.105Z,81.10
2019-03-18T02:26:38.939Z,81.72
2019-03-18T02:29:46.883Z,81.27
2019-03-18T02:32:53.760Z,81.12
2019-03-18T02:36:00.644Z,80.62
2019-03-18T02:39:08.458Z,80.53
2019-03-18T02:42:15.308Z,81.14
2019-03-18T02:45:24.659Z,82.02
2019-03-18T02:48:30.886Z,81.08
2019-03-18T02:51:37.836Z,81.38
2019-03-18T02:54:44.878Z,82.01
2019-03-18T02:57:51.736Z,81.23
2019-03-18T03:00:58.593Z,82.07
2019-03-18T03:04:06.505Z,82.50
2019-03-18T03:07:14.788Z,82.13
2019-03-18T03:10:21.648Z,82.36
2019-03-18T03:13:28.567Z,82.39
2019-03-18T03:16:35.418Z,82.23
2019-03-18T03:19:43.256Z,81.60
2019-03-18T03:22:50.091Z,81.47
2019-03-18T03:25:56.985Z,81.44
2019-03-18T03:29:03.918Z,82.19
2019-03-18T03:32:10.846Z,81.77
2019-03-18T03:35:17.709Z,80.60
2019-03-18T03:38:24.656Z,80.34
2019-03-18T03:41:31.590Z,80.67
2019-03-18T03:44:38.490Z,80.04
2019-03-18T03:47:45.775Z,80.79
2019-03-18T03:50:52.790Z,80.56
2019-03-18T03:53:59.863Z,80.03
2019-03-18T03:57:07.179Z,79.83
2019-03-18T04:00:14.252Z,79.79
2019-03-18T04:03:37.209Z,79.80
2019-03-18T04:06:29.712Z,80.03
2019-03-18T04:09:36.834Z,79.54
2019-03-18T04:12:43.717Z,79.47
2019-03-18T04:15:50.633Z,79.67
2019-03-18T04:18:57.488Z,80.24
2019-03-18T04:22:04.378Z,79.90
2019-03-18T04:25:11.281Z,80.60
2019-03-18T04:28:18.104Z,80.57
2019-03-18T04:31:24.944Z,80.71
2019-03-18T04:34:31.810Z,79.50
2019-03-18T04:37:42.040Z,80.36
2019-03-18T04:40:47.636Z,79.73
2019-03-18T04:43:54.477Z,79.85
2019-03-18T04:47:13.413Z,80.07
2019-03-18T04:50:10.189Z,79.67
2019-03-18T04:53:17.206Z,79.70
2019-03-18T04:56:24.199Z,79.85
2019-03-18T04:59:31.075Z,81.08
2019-03-18T05:02:37.916Z,81.05
2019-03-18T05:05:44.986Z,81.01
2019-03-18T05:08:57.698Z,81.41
2019-03-18T05:12:05.729Z,81.42
2019-03-18T05:15:12.756Z,81.63
2019-03-18T05:18:19.621Z,81.79
2019-03-18T05:21:26.495Z,81.60
2019-03-18T05:24:33.366Z,81.78
2019-03-18T05:27:41.433Z,81.73
2019-03-18T05:30:50.914Z,81.46
2019-03-18T05:33:56.887Z,82.08
2019-03-18T05:37:03.831Z,81.75
2019-03-18T05:40:10.693Z,81.84
2019-03-18T05:43:17.621Z,81.82
2019-03-18T05:46:24.457Z,81.33
2019-03-18T05:49:31.353Z,82.25
2019-03-18T05:52:38.222Z,82.12
2019-03-18T05:55:45.158Z,81.99
2019-03-18T05:58:51.910Z,82.53
2019-03-18T06:01:58.729Z,81.85
2019-03-18T06:05:06.594Z,81.15
2019-03-18T06:08:13.414Z,81.37
2019-03-18T06:11:20.323Z,81.13
2019-03-18T06:14:28.410Z,81.21
2019-03-18T06:17:36.543Z,81.11
2019-03-18T06:20:43.383Z,81.53
2019-03-18T06:23:50.288Z,80.66
2019-03-18T06:26:57.169Z,80.71
2019-03-18T06:30:04.031Z,80.35
2019-03-18T06:33:10.904Z,80.45
2019-03-18T06:36:17.750Z,80.30
2019-03-18T06:39:24.654Z,80.10
2019-03-18T06:42:31.586Z,79.80
2019-03-18T06:45:43.093Z,79.93
2019-03-18T06:48:49.923Z,79.38
2019-03-18T06:51:56.811Z,79.41
2019-03-18T06:55:03.651Z,79.03
2019-03-18T06:58:10.500Z,79.42
2019-03-18T07:01:17.298Z,78.96
2019-03-18T07:04:24.103Z,78.79
2019-03-18T07:07:31.054Z,78.17
2019-03-18T07:10:38.274Z,78.14
2019-03-18T07:13:45.128Z,77.40
2019-03-18T07:16:52.400Z,77.06
2019-03-18T07:19:59.320Z,77.25
2019-03-18T07:23:06.485Z,77.36
2019-03-18T07:26:15.906Z,76.25
2019-03-18T07:29:22.822Z,76.01
2019-03-18T07:32:30.791Z,75.61
2019-03-18T07:35:38.186Z,74.40
2019-03-18T07:38:45.140Z,74.69
2019-03-18T07:41:52.007Z,75.60
2019-03-18T07:45:01.228Z,75.16
2019-03-18T07:48:11.475Z,75.45
2019-03-18T07:51:17.930Z,75.19
2019-03-18T07:54:32.776Z,76.06
2019-03-18T07:57:34.081Z,75.41
2019-03-18T08:00:41.160Z,75.73
2019-03-18T08:03:48.511Z,76.18
2019-03-18T08:06:55.424Z,75.52
2019-03-18T08:10:02.299Z,74.62
2019-03-18T08:13:09.265Z,74.85
2019-03-18T08:16:16.174Z,75.01
2019-03-18T08:19:23.516Z,74.35
2019-03-18T08:22:30.367Z,73.96
2019-03-18T08:25:37.755Z,73.11
2019-03-18T08:28:44.742Z,73.33
2019-03-18T08:31:51.757Z,72.35
2019-03-18T08:34:58.595Z,72.18
2019-03-18T08:38:05.497Z,70.23
2019-03-18T08:41:12.361Z,71.28
2019-03-18T08:44:19.262Z,71.89
2019-03-18T08:47:26.106Z,71.00
2019-03-18T08:50:33.053Z,70.50
2019-03-18T08:53:39.895Z,68.44
2019-03-18T08:56:46.777Z,68.64
2019-03-18T08:59:53.571Z,69.27
2019-03-18T09:03:03.443Z,69.93
2019-03-18T09:06:10.314Z,70.30
2019-03-18T09:09:17.166Z,69.17
2019-03-18T09:12:24.068Z,68.79
2019-03-18T09:15:31.114Z,68.93
2019-03-18T09:18:37.971Z,68.43
2019-03-18T09:21:45.141Z,68.77
2019-03-18T09:24:52.023Z,69.05
2019-03-18T09:27:58.995Z,69.57
2019-03-18T09:31:05.886Z,69.03
2019-03-18T09:34:12.835Z,69.88
2019-03-18T09:37:19.600Z,69.50
2019-03-18T09:40:29.205Z,70.04
2019-03-18T09:43:38.064Z,69.35
2019-03-18T09:46:44.964Z,70.54
2019-03-18T09:49:51.836Z,70.13
2019-03-18T09:52:58.681Z,69.70
2019-03-18T09:56:06.665Z,70.12
2019-03-18T09:59:13.674Z,70.11
2019-03-18T10:02:20.543Z,69.55
2019-03-18T10:05:27.414Z,68.40
2019-03-18T10:08:35.922Z,69.23
2019-03-18T10:11:42.936Z,68.77
2019-03-18T10:14:49.850Z,68.21
2019-03-18T10:17:56.994Z,66.83
2019-03-18T10:21:06.252Z,67.43
2019-03-18T10:24:13.459Z,67.31
2019-03-18T10:27:20.213Z,66.52
2019-03-18T10:30:27.085Z,66.47
2019-03-18T10:33:34.032Z,67.28
2019-03-18T10:36:40.949Z,67.06
2019-03-18T10:39:47.775Z,67.17
2019-03-18T10:42:54.899Z,67.69
2019-03-18T10:46:04.564Z,66.30
2019-03-18T10:49:11.416Z,66.63
2019-03-18T10:52:19.920Z,67.07
2019-03-18T10:55:29.569Z,65.90
2019-03-18T10:58:38.074Z,66.43
2019-03-18T11:01:45.082Z,66.97
2019-03-18T11:04:51.924Z,67.08
2019-03-18T11:07:58.801Z,65.65
2019-03-18T11:11:05.800Z,66.82
2019-03-18T11:14:12.692Z,67.46
2019-03-18T11:17:19.542Z,67.48
2019-03-18T11:20:29.497Z,66.96
2019-03-18T11:23:38.916Z,67.26
2019-03-18T11:26:46.943Z,67.30
2019-03-18T11:29:53.795Z,67.21
2019-03-18T11:33:00.797Z,66.32
2019-03-18T11:36:07.757Z,66.21
2019-03-18T11:39:14.718Z,65.87
2019-03-18T11:42:21.536Z,66.03
2019-03-18T11:45:28.470Z,66.50
2019-03-18T11:48:35.246Z,66.19
2019-03-18T11:51:42.104Z,66.60
2019-03-18T11:54:48.990Z,66.38
2019-03-18T11:57:55.802Z,66.02
2019-03-18T12:01:02.646Z,65.00
2019-03-18T12:04:11.533Z,66.78
2019-03-18T12:07:18.425Z,65.86
2019-03-18T12:10:26.579Z,64.63
2019-03-18T12:13:33.544Z,65.38
2019-03-18T12:16:40.432Z,66.59
2019-03-18T12:19:47.310Z,66.21
2019-03-18T12:22:54.169Z,65.98
2019-03-18T12:26:01.009Z,65.60
2019-03-18T12:29:10.185Z,64.93
2019-03-18T12:32:17.043Z,66.30
2019-03-18T12:35:25.274Z,63.77
2019-03-18T12:38:34.605Z,62.59
2019-03-18T12:41:41.494Z,62.52
2019-03-18T12:44:48.524Z,62.75
2019-03-18T12:47:55.454Z,64.01
2019-03-18T12:51:05.912Z,65.28
2019-03-18T12:54:14.732Z,66.47
2019-03-18T12:57:21.731Z,67.13
2019-03-18T13:00:28.663Z,67.75
2019-03-18T13:03:35.540Z,67.23
2019-03-18T13:06:42.422Z,67.74
2019-03-18T13:09:49.177Z,65.08
2019-03-18T13:12:59.026Z,64.75
2019-03-18T13:16:05.862Z,64.69
2019-03-18T13:19:12.806Z,62.98
2019-03-18T13:22:19.631Z,62.16
2019-03-18T13:25:26.805Z,61.84
2019-03-18T13:28:33.641Z,60.00
2019-03-18T13:31:40.791Z,60.31
2019-03-18T13:34:47.694Z,60.95
2019-03-18T13:37:55.332Z,60.05
2019-03-18T13:41:03.663Z,58.33
2019-03-18T13:44:10.565Z,60.16
2019-03-18T13:47:19.635Z,61.13
2019-03-18T13:50:26.484Z,61.30
2019-03-18T13:53:33.951Z,62.05
2019-03-18T13:56:43.307Z,63.24
2019-03-18T13:59:50.232Z,66.98
2019-03-18T14:02:57.113Z,77.59
2019-03-18T14:06:04.034Z,82.47
2019-03-18T14:09:11.043Z,82.35
2019-03-18T14:12:17.996Z,83.67
2019-03-18T14:15:24.919Z,82.44
2019-03-18T14:18:32.153Z,84.20
2019-03-18T14:21:38.964Z,85.04
2019-03-18T14:24:46.162Z,84.72
2019-03-18T14:27:53.174Z,85.72
2019-03-18T14:30:59.939Z,85.16
2019-03-18T14:34:07.145Z,85.68
2019-03-18T14:37:17.251Z,84.65
2019-03-18T14:40:25.735Z,84.25
2019-03-18T14:43:33.153Z,86.04
2019-03-18T14:46:40.223Z,82.53
2019-03-18T14:49:48.102Z,82.70
2019-03-18T14:52:56.408Z,79.77
2019-03-18T14:56:03.467Z,81.76
2019-03-18T14:59:10.975Z,80.62
2019-03-18T15:02:18.018Z,79.00
2019-03-18T15:05:25.033Z,79.58
2019-03-18T15:08:34.986Z,77.63
2019-03-18T15:11:44.301Z,76.62
2019-03-18T15:14:51.934Z,75.54
2019-03-18T15:17:58.962Z,75.28
2019-03-18T15:21:05.804Z,74.10
2019-03-18T15:24:17.330Z,71.18
2019-03-18T15:27:21.259Z,69.46
2019-03-18T15:30:35.653Z,71.19
2019-03-18T15:33:44.717Z,71.05
2019-03-18T15:36:56.545Z,69.48
2019-03-18T15:40:06.885Z,69.22
2019-03-18T15:43:14.112Z,71.31
2019-03-18T15:46:23.071Z,71.37
2019-03-18T15:49:32.044Z,70.45
2019-03-18T15:52:41.856Z,71.95
2019-03-18T15:55:49.349Z,71.92
2019-03-18T15:58:56.457Z,73.70
2019-03-18T16:02:03.988Z,70.88
2019-03-18T16:05:11.050Z,70.71
2019-03-18T16:08:18.107Z,73.01
2019-03-18T16:11:24.964Z,75.23
2019-03-18T16:14:37.776Z,75.61
2019-03-18T16:17:44.759Z,75.49
2019-03-18T16:20:51.630Z,76.72
2019-03-18T16:23:58.470Z,77.19
2019-03-18T16:27:07.618Z,76.99
2019-03-18T16:30:17.595Z,74.72
2019-03-18T16:33:24.707Z,75.04
2019-03-18T16:36:33.173Z,74.57
2019-03-18T16:39:40.235Z,75.48
2019-03-18T16:42:47.090Z,76.06
2019-03-18T16:45:54.066Z,76.15
2019-03-18T16:49:01.014Z,77.31
2019-03-18T16:52:11.040Z,76.84
2019-03-18T16:55:18.050Z,76.69
2019-03-18T16:58:24.967Z,75.73
2019-03-18T17:01:31.955Z,76.30
2019-03-18T17:04:39.297Z,76.08
2019-03-18T17:07:46.159Z,76.05
2019-03-18T17:10:53.040Z,77.64
2019-03-18T17:13:59.965Z,77.62
2019-03-18T17:17:06.825Z,76.86
2019-03-18T17:20:16.642Z,76.53
2019-03-18T17:23:24.606Z,76.62
2019-03-18T17:26:31.550Z,77.27
2019-03-18T17:29:39.503Z,77.44
2019-03-18T17:32:46.660Z,78.48
2019-03-18T17:35:53.540Z,78.67
2019-03-18T17:39:00.443Z,78.96
2019-03-18T17:42:08.542Z,79.01
2019-03-18T17:45:15.689Z,80.26
2019-03-18T17:48:22.661Z,81.16
2019-03-18T17:51:33.480Z,81.60
2019-03-18T17:54:40.701Z,80.23
2019-03-18T17:57:48.824Z,80.69
2019-03-18T18:00:55.692Z,79.49
2019-03-18T18:04:02.550Z,83.00
2019-03-18T18:07:12.391Z,83.00
2019-03-18T18:10:19.296Z,82.75
2019-03-18T18:13:26.303Z,84.07
2019-03-18T18:16:34.773Z,83.44
2019-03-18T18:19:41.667Z,82.41
2019-03-18T18:22:50.207Z,82.64
2019-03-18T18:25:57.252Z,83.33
2019-03-18T18:29:04.201Z,83.33
2019-03-18T18:32:11.210Z,83.32
2019-03-18T18:35:18.064Z,83.82
2019-03-18T18:38:24.976Z,83.82
2019-03-18T18:41:31.948Z,83.85
2019-03-18T18:44:41.338Z,82.02
2019-03-18T18:47:51.240Z,81.97
2019-03-18T18:50:58.553Z,82.19
2019-03-18T18:54:05.507Z,82.05
2019-03-18T18:57:12.449Z,80.87
2019-03-18T19:00:19.462Z,80.21
2019-03-18T19:03:26.344Z,81.04
2019-03-18T19:06:37.285Z,81.15
2019-03-18T19:09:44.262Z,80.65
2019-03-18T19:12:51.483Z,80.59
2019-03-18T19:16:00.315Z,81.22
2019-03-18T19:19:07.191Z,81.01
2019-03-18T19:22:14.099Z,80.11
2019-03-18T19:25:20.949Z,80.04
2019-03-18T19:28:29.381Z,81.45
2019-03-18T19:31:38.681Z,81.17
2019-03-18T19:34:49.580Z,81.59
2019-03-18T19:37:56.706Z,80.74
2019-03-18T19:41:03.640Z,80.29
2019-03-18T19:44:10.571Z,80.30
2019-03-18T19:47:18.901Z,79.89
2019-03-18T19:50:26.050Z,80.28
2019-03-18T19:53:32.897Z,80.15
2019-03-18T19:56:39.776Z,81.00
2019-03-18T19:59:46.691Z,80.94
2019-03-18T20:02:53.595Z,81.44
2019-03-18T20:06:02.105Z,81.21
2019-03-18T20:09:09.673Z,81.09
2019-03-18T20:12:16.730Z,81.81
2019-03-18T20:15:25.824Z,82.20
2019-03-18T20:18:32.794Z,81.77
2019-03-18T20:21:39.634Z,82.40
2019-03-18T20:24:46.662Z,83.03
2019-03-18T20:27:53.503Z,82.50
2019-03-18T20:31:00.519Z,82.18
2019-03-18T20:34:07.378Z,82.32
2019-03-18T20:37:14.243Z,83.69
2019-03-18T20:40:21.764Z,84.95
2019-03-18T20:43:30.151Z,84.63
2019-03-18T20:46:40.228Z,85.50
2019-03-18T20:49:49.604Z,86.69
2019-03-18T20:52:56.552Z,86.53
2019-03-18T20:56:03.555Z,84.79
2019-03-18T20:59:10.551Z,84.36
2019-03-18T21:02:20.814Z,84.56
2019-03-18T21:05:28.821Z,85.84
2019-03-18T21:08:39.019Z,86.50
2019-03-18T21:11:45.939Z,85.25
2019-03-18T21:14:52.940Z,84.83
2019-03-18T21:17:59.803Z,85.31
2019-03-18T21:21:06.841Z,86.85
2019-03-18T21:24:22.632Z,86.31
2019-03-18T21:27:22.512Z,85.60
2019-03-18T21:30:32.425Z,85.00
2019-03-18T21:33:38.991Z,84.66
2019-03-18T21:36:47.029Z,84.73
2019-03-18T21:39:54.017Z,85.23
2019-03-18T21:43:01.024Z,85.33
2019-03-18T21:46:08.114Z,85.44
2019-03-18T21:49:15.022Z,84.77
2019-03-18T21:52:22.296Z,84.79
2019-03-18T21:55:29.156Z,84.63
2019-03-18T21:58:36.134Z,85.15
2019-03-18T22:01:45.709Z,85.54
2019-03-18T22:04:52.568Z,84.37
2019-03-18T22:07:59.480Z,84.26
2019-03-18T22:11:06.342Z,84.92
2019-03-18T22:14:13.184Z,85.41
2019-03-18T22:17:20.070Z,85.61
2019-03-18T22:20:26.925Z,85.93
2019-03-18T22:23:33.907Z,83.79
2019-03-18T22:26:41.025Z,83.53
2019-03-18T22:29:47.947Z,83.11
2019-03-18T22:32:54.785Z,82.77
2019-03-18T22:36:03.365Z,83.46
2019-03-18T22:39:10.833Z,83.49
2019-03-18T22:42:17.743Z,83.83
2019-03-18T22:45:26.381Z,83.69
2019-03-18T22:48:33.256Z,84.25
2019-03-18T22:51:40.099Z,85.09
2019-03-18T22:54:55.609Z,86.87
2019-03-18T22:57:55.776Z,86.53
2019-03-18T23:01:14.561Z,86.85
2019-03-18T23:04:21.565Z,87.32
2019-03-18T23:07:29.728Z,87.97
2019-03-18T23:10:38.279Z,88.56
2019-03-18T23:13:45.165Z,84.81
2019-03-18T23:16:52.111Z,86.36
2019-03-18T23:19:58.967Z,85.94
2019-03-18T23:23:05.909Z,85.54
2019-03-18T23:26:12.725Z,88.15
2019-03-18T23:29:19.555Z,86.85
2019-03-18T23:32:26.437Z,87.33
2019-03-18T23:35:33.336Z,88.28
2019-03-18T23:38:40.289Z,88.90
2019-03-18T23:41:47.461Z,88.35
2019-03-18T23:44:54.480Z,89.40
2019-03-18T23:48:01.263Z,89.23
2019-03-18T23:51:08.462Z,89.16
2019-03-18T23:54:15.284Z,86.42
2019-03-18T23:57:22.755Z,88.68
